Blue Hill, NE

8:30 AM CDT on May 24, 2015 (GMT -0500)
Spring Ranch | | Change Station
CLOSE
Current Station
Personal Weather Station
Location: Glenvil, NE
Elevation: 1781 ft
Nearby Weather Stations

Elev 1781 ft 40.42 °N, 98.26 °W | Updated 38 seconds ago

Overcast
Overcast
59.9 °F
Feels Like 59.9 °F
N
0.0
Wind Variable Wind from SSE
Gusts 1.0 mph

Today
High -- | Low -- °F
--% Chance of Precip.
Yesterday
High -- | Low -- °F
Precip. -- in
6:10 AM 8:51 PM
Waxing Crescent, 39% visible
Pressure 29.88 in
Visibility 3.0 miles
Clouds Mostly Cloudy 200 ft
Overcast 1300 ft
Dew Point 60 °F
Humidity 100%
Rainfall 0.00 in
Snow Depth Not available.
UV 1 out of 12
Pollen 4.50 out of 12
Air Quality Not available.
Flu Activity No Activity
SPECI KHSI 241315Z AUTO 16003KT 3SM BR BKN002 OVC013 15/15 A2988 RMK AO2 RAE06 CIG 001V006 P0000 T01500150

More Conditions Fewer Conditions

Pressure 29.88 in
Visibility 3.0 miles
Clouds Mostly Cloudy 200 ft
Overcast 1300 ft
Dew Point 60 °F
Humidity 100%
Rainfall 0.00 in
Snow Depth Not available.
UV 1 out of 12
Pollen 4.50 out of 12
Air Quality Not available.
Flu Activity No Activity
SPECI KHSI 241315Z AUTO 16003KT 3SM BR BKN002 OVC013 15/15 A2988 RMK AO2 RAE06 CIG 001V006 P0000 T01500150

More Conditions Fewer Conditions

Nowcast | as of 5:24 am CDT on May 24, 2015

Areas of fog have developed across much of south central Nebraska and north central Kansas this morning. While widespread dense fog is not expected...expect to see visibilities drop to one half of a mile or less at times through around 9 am CDT.

×

10-Day Weather Forecast

Almanac

Astronomy

May. 24, 2015 Rise Set
Actual Time
Civil Twilight
Nautical Twilight
Astronomical Twilight
Moon
Length of Visible Light
Length of Day
Tomorrow will be .
, % of the Moon is Illuminated

Today's Extremes

State Highs State Lows

Community

WunderPhotos

Upload Photos

1,823,736 photos uploaded!

WunderBlogs® & News

Nearby

Air Quality

  Air Quality AQ Index Pollutant
Not available.

Snow Depth

Station Depth Elevation

Earthquake Activity

City Distance Mag. Time & Date
Minimum magnitude displayed is 2.5.

Coastal Water Temperatures

Place Temperature

Stations

Nearby Weather Stations

Station Location Temp. Windchill Dew Point Humidity Wind Precip. Elev Updated Type